sensor_id;sensor_type;location;lat;lon;timestamp;P1;durP1;ratioP1;P2;durP2;ratioP2
52180;SDS011;38158;53.338;6.514;2022-08-03T00:01:57;6.78;;;2.78;;
52180;SDS011;38158;53.338;6.514;2022-08-03T00:04:23;11.27;;;3.00;;
52180;SDS011;38158;53.338;6.514;2022-08-03T00:06:49;11.02;;;3.38;;
52180;SDS011;38158;53.338;6.514;2022-08-03T00:09:14;8.10;;;2.60;;
52180;SDS011;38158;53.338;6.514;2022-08-03T00:11:40;7.00;;;2.72;;
52180;SDS011;38158;53.338;6.514;2022-08-03T00:14:06;8.98;;;2.78;;
52180;SDS011;38158;53.338;6.514;2022-08-03T00:16:32;10.93;;;2.97;;
52180;SDS011;38158;53.338;6.514;2022-08-03T00:18:58;9.30;;;2.70;;
52180;SDS011;38158;53.338;6.514;2022-08-03T00:21:24;12.32;;;2.78;;
52180;SDS011;38158;53.338;6.514;2022-08-03T00:23:50;10.50;;;3.10;;
52180;SDS011;38158;53.338;6.514;2022-08-03T00:26:15;7.82;;;2.75;;
52180;SDS011;38158;53.338;6.514;2022-08-03T00:28:41;15.20;;;3.08;;
52180;SDS011;38158;53.338;6.514;2022-08-03T00:31:07;10.88;;;3.28;;
52180;SDS011;38158;53.338;6.514;2022-08-03T00:33:33;9.35;;;3.10;;
52180;SDS011;38158;53.338;6.514;2022-08-03T00:35:58;10.00;;;3.05;;
52180;SDS011;38158;53.338;6.514;2022-08-03T00:38:24;8.25;;;3.38;;
52180;SDS011;38158;53.338;6.514;2022-08-03T00:40:49;8.75;;;3.03;;
52180;SDS011;38158;53.338;6.514;2022-08-03T00:43:15;10.50;;;3.47;;
52180;SDS011;38158;53.338;6.514;2022-08-03T00:45:41;9.30;;;3.95;;
52180;SDS011;38158;53.338;6.514;2022-08-03T00:48:08;11.97;;;3.47;;
52180;SDS011;38158;53.338;6.514;2022-08-03T00:50:37;10.07;;;3.40;;
52180;SDS011;38158;53.338;6.514;2022-08-03T00:53:04;7.22;;;3.20;;
52180;SDS011;38158;53.338;6.514;2022-08-03T00:57:57;11.77;;;3.08;;
52180;SDS011;38158;53.338;6.514;2022-08-03T01:00:26;12.90;;;3.67;;
52180;SDS011;38158;53.338;6.514;2022-08-03T01:02:52;12.18;;;3.75;;
52180;SDS011;38158;53.338;6.514;2022-08-03T01:05:18;7.22;;;3.40;;
52180;SDS011;38158;53.338;6.514;2022-08-03T01:07:54;8.85;;;3.67;;
52180;SDS011;38158;53.338;6.514;2022-08-03T01:13:50;9.25;;;2.70;;
52180;SDS011;38158;53.338;6.514;2022-08-03T01:16:36;9.27;;;2.83;;
52180;SDS011;38158;53.338;6.514;2022-08-03T01:24:33;9.20;;;2.70;;
52180;SDS011;38158;53.338;6.514;2022-08-03T01:27:08;8.18;;;2.60;;
52180;SDS011;38158;53.338;6.514;2022-08-03T01:32:14;8.50;;;3.13;;
52180;SDS011;38158;53.338;6.514;2022-08-03T01:34:48;9.73;;;2.63;;
52180;SDS011;38158;53.338;6.514;2022-08-03T01:37:21;8.38;;;2.60;;
52180;SDS011;38158;53.338;6.514;2022-08-03T01:39:50;8.80;;;2.67;;
52180;SDS011;38158;53.338;6.514;2022-08-03T01:42:20;7.72;;;2.50;;
52180;SDS011;38158;53.338;6.514;2022-08-03T01:44:46;9.20;;;2.33;;
52180;SDS011;38158;53.338;6.514;2022-08-03T01:47:15;9.77;;;2.30;;
52180;SDS011;38158;53.338;6.514;2022-08-03T01:49:45;9.25;;;2.65;;
52180;SDS011;38158;53.338;6.514;2022-08-03T01:52:12;10.23;;;2.40;;
52180;SDS011;38158;53.338;6.514;2022-08-03T01:54:43;11.18;;;2.53;;
52180;SDS011;38158;53.338;6.514;2022-08-03T01:57:12;11.48;;;2.85;;
52180;SDS011;38158;53.338;6.514;2022-08-03T01:59:39;6.90;;;2.22;;
52180;SDS011;38158;53.338;6.514;2022-08-03T02:02:06;7.75;;;2.40;;
52180;SDS011;38158;53.338;6.514;2022-08-03T02:04:35;10.35;;;2.63;;
52180;SDS011;38158;53.338;6.514;2022-08-03T02:07:03;10.27;;;2.13;;
52180;SDS011;38158;53.338;6.514;2022-08-03T02:09:30;7.00;;;2.15;;
52180;SDS011;38158;53.338;6.514;2022-08-03T02:11:57;11.10;;;2.60;;
52180;SDS011;38158;53.338;6.514;2022-08-03T02:14:24;10.20;;;2.20;;
52180;SDS011;38158;53.338;6.514;2022-08-03T02:16:52;6.03;;;1.92;;
52180;SDS011;38158;53.338;6.514;2022-08-03T02:19:19;7.88;;;2.20;;
52180;SDS011;38158;53.338;6.514;2022-08-03T02:21:45;8.30;;;2.15;;
52180;SDS011;38158;53.338;6.514;2022-08-03T02:24:12;8.10;;;2.65;;
52180;SDS011;38158;53.338;6.514;2022-08-03T02:26:38;8.98;;;2.00;;
52180;SDS011;38158;53.338;6.514;2022-08-03T02:29:06;9.00;;;2.20;;
52180;SDS011;38158;53.338;6.514;2022-08-03T02:31:40;8.80;;;2.20;;
52180;SDS011;38158;53.338;6.514;2022-08-03T02:34:11;9.68;;;2.15;;
52180;SDS011;38158;53.338;6.514;2022-08-03T02:36:38;7.38;;;2.25;;
52180;SDS011;38158;53.338;6.514;2022-08-03T02:39:06;8.27;;;2.33;;
52180;SDS011;38158;53.338;6.514;2022-08-03T02:41:45;9.88;;;2.20;;
52180;SDS011;38158;53.338;6.514;2022-08-03T02:44:13;12.45;;;2.20;;
52180;SDS011;38158;53.338;6.514;2022-08-03T02:46:45;10.52;;;2.20;;
52180;SDS011;38158;53.338;6.514;2022-08-03T02:49:14;7.75;;;2.00;;
52180;SDS011;38158;53.338;6.514;2022-08-03T02:51:43;8.50;;;2.42;;
52180;SDS011;38158;53.338;6.514;2022-08-03T02:54:10;11.48;;;2.38;;
52180;SDS011;38158;53.338;6.514;2022-08-03T02:56:38;7.93;;;2.50;;
52180;SDS011;38158;53.338;6.514;2022-08-03T02:59:05;9.45;;;2.50;;
52180;SDS011;38158;53.338;6.514;2022-08-03T03:01:31;5.72;;;1.60;;
52180;SDS011;38158;53.338;6.514;2022-08-03T03:03:57;8.90;;;2.28;;
52180;SDS011;38158;53.338;6.514;2022-08-03T03:08:51;9.27;;;2.38;;
52180;SDS011;38158;53.338;6.514;2022-08-03T03:11:18;6.53;;;1.98;;
52180;SDS011;38158;53.338;6.514;2022-08-03T03:13:45;8.48;;;2.28;;
52180;SDS011;38158;53.338;6.514;2022-08-03T03:16:14;9.32;;;2.53;;
52180;SDS011;38158;53.338;6.514;2022-08-03T03:21:09;9.93;;;2.45;;
52180;SDS011;38158;53.338;6.514;2022-08-03T03:23:35;9.48;;;1.80;;
52180;SDS011;38158;53.338;6.514;2022-08-03T03:26:03;8.45;;;2.28;;
52180;SDS011;38158;53.338;6.514;2022-08-03T03:28:30;7.57;;;2.00;;
52180;SDS011;38158;53.338;6.514;2022-08-03T03:30:56;11.02;;;2.70;;
52180;SDS011;38158;53.338;6.514;2022-08-03T03:33:23;9.45;;;2.35;;
52180;SDS011;38158;53.338;6.514;2022-08-03T03:35:49;6.45;;;1.95;;
52180;SDS011;38158;53.338;6.514;2022-08-03T03:38:16;7.03;;;2.30;;
52180;SDS011;38158;53.338;6.514;2022-08-03T03:40:42;12.23;;;3.07;;
52180;SDS011;38158;53.338;6.514;2022-08-03T03:43:11;7.57;;;2.10;;
52180;SDS011;38158;53.338;6.514;2022-08-03T03:45:39;10.82;;;2.30;;
52180;SDS011;38158;53.338;6.514;2022-08-03T03:48:06;8.55;;;1.85;;
52180;SDS011;38158;53.338;6.514;2022-08-03T03:50:33;13.88;;;2.70;;
52180;SDS011;38158;53.338;6.514;2022-08-03T03:53:00;9.13;;;2.47;;
52180;SDS011;38158;53.338;6.514;2022-08-03T03:55:26;9.13;;;2.47;;
52180;SDS011;38158;53.338;6.514;2022-08-03T03:57:51;7.05;;;2.20;;
52180;SDS011;38158;53.338;6.514;2022-08-03T04:00:17;6.22;;;2.03;;
52180;SDS011;38158;53.338;6.514;2022-08-03T04:02:44;9.10;;;2.07;;
52180;SDS011;38158;53.338;6.514;2022-08-03T04:05:10;8.77;;;2.50;;
52180;SDS011;38158;53.338;6.514;2022-08-03T04:07:59;8.60;;;2.33;;
52180;SDS011;38158;53.338;6.514;2022-08-03T04:11:00;8.25;;;2.58;;
52180;SDS011;38158;53.338;6.514;2022-08-03T04:16:08;11.05;;;2.55;;
52180;SDS011;38158;53.338;6.514;2022-08-03T04:18:37;13.20;;;2.40;;
52180;SDS011;38158;53.338;6.514;2022-08-03T04:21:05;15.65;;;2.97;;
52180;SDS011;38158;53.338;6.514;2022-08-03T04:23:39;11.48;;;2.42;;
52180;SDS011;38158;53.338;6.514;2022-08-03T04:26:09;10.85;;;2.35;;
52180;SDS011;38158;53.338;6.514;2022-08-03T04:28:38;9.15;;;2.38;;
52180;SDS011;38158;53.338;6.514;2022-08-03T04:31:08;9.40;;;2.08;;
52180;SDS011;38158;53.338;6.514;2022-08-03T04:33:34;10.75;;;2.70;;
52180;SDS011;38158;53.338;6.514;2022-08-03T04:36:03;9.32;;;2.45;;
52180;SDS011;38158;53.338;6.514;2022-08-03T04:38:31;10.68;;;2.65;;
52180;SDS011;38158;53.338;6.514;2022-08-03T04:41:02;8.07;;;2.40;;
52180;SDS011;38158;53.338;6.514;2022-08-03T04:43:29;10.45;;;2.75;;
52180;SDS011;38158;53.338;6.514;2022-08-03T04:45:57;10.80;;;2.80;;
52180;SDS011;38158;53.338;6.514;2022-08-03T04:48:24;9.82;;;2.53;;
52180;SDS011;38158;53.338;6.514;2022-08-03T04:50:51;7.43;;;2.67;;
52180;SDS011;38158;53.338;6.514;2022-08-03T04:53:18;8.90;;;2.80;;
52180;SDS011;38158;53.338;6.514;2022-08-03T04:55:43;9.65;;;2.70;;
52180;SDS011;38158;53.338;6.514;2022-08-03T04:58:09;9.15;;;2.67;;
52180;SDS011;38158;53.338;6.514;2022-08-03T05:03:02;9.73;;;2.78;;
52180;SDS011;38158;53.338;6.514;2022-08-03T05:05:28;10.02;;;2.75;;
52180;SDS011;38158;53.338;6.514;2022-08-03T05:07:53;8.10;;;2.92;;
52180;SDS011;38158;53.338;6.514;2022-08-03T05:10:20;14.50;;;2.72;;
52180;SDS011;38158;53.338;6.514;2022-08-03T05:12:46;9.63;;;3.15;;
52180;SDS011;38158;53.338;6.514;2022-08-03T05:15:13;13.82;;;2.95;;
52180;SDS011;38158;53.338;6.514;2022-08-03T05:17:39;11.80;;;3.00;;
52180;SDS011;38158;53.338;6.514;2022-08-03T05:20:06;8.52;;;3.25;;
52180;SDS011;38158;53.338;6.514;2022-08-03T05:22:32;9.83;;;3.33;;
52180;SDS011;38158;53.338;6.514;2022-08-03T05:24:57;8.82;;;2.67;;
52180;SDS011;38158;53.338;6.514;2022-08-03T05:27:24;14.63;;;3.08;;
52180;SDS011;38158;53.338;6.514;2022-08-03T05:29:50;7.53;;;3.15;;
52180;SDS011;38158;53.338;6.514;2022-08-03T05:32:16;11.25;;;3.70;;
52180;SDS011;38158;53.338;6.514;2022-08-03T05:34:42;11.68;;;3.20;;
52180;SDS011;38158;53.338;6.514;2022-08-03T05:37:08;14.60;;;3.17;;
52180;SDS011;38158;53.338;6.514;2022-08-03T05:39:35;13.23;;;2.85;;
52180;SDS011;38158;53.338;6.514;2022-08-03T05:42:00;11.95;;;3.15;;
52180;SDS011;38158;53.338;6.514;2022-08-03T05:44:26;10.60;;;3.33;;
52180;SDS011;38158;53.338;6.514;2022-08-03T05:46:52;12.70;;;3.08;;
52180;SDS011;38158;53.338;6.514;2022-08-03T05:49:18;8.82;;;3.17;;
52180;SDS011;38158;53.338;6.514;2022-08-03T05:51:44;13.73;;;2.75;;
52180;SDS011;38158;53.338;6.514;2022-08-03T05:54:10;10.35;;;3.45;;
52180;SDS011;38158;53.338;6.514;2022-08-03T05:56:36;12.10;;;3.10;;
52180;SDS011;38158;53.338;6.514;2022-08-03T05:59:02;12.95;;;3.63;;
52180;SDS011;38158;53.338;6.514;2022-08-03T06:01:28;12.63;;;3.38;;
52180;SDS011;38158;53.338;6.514;2022-08-03T06:03:56;10.27;;;2.90;;
52180;SDS011;38158;53.338;6.514;2022-08-03T06:06:22;10.60;;;3.03;;
52180;SDS011;38158;53.338;6.514;2022-08-03T06:08:47;11.48;;;3.55;;
52180;SDS011;38158;53.338;6.514;2022-08-03T06:11:13;10.35;;;2.92;;
52180;SDS011;38158;53.338;6.514;2022-08-03T06:13:40;14.60;;;3.22;;
52180;SDS011;38158;53.338;6.514;2022-08-03T06:16:06;15.85;;;3.28;;
52180;SDS011;38158;53.338;6.514;2022-08-03T06:18:32;13.57;;;2.95;;
52180;SDS011;38158;53.338;6.514;2022-08-03T06:20:58;10.90;;;2.85;;
52180;SDS011;38158;53.338;6.514;2022-08-03T06:23:23;10.77;;;3.10;;
52180;SDS011;38158;53.338;6.514;2022-08-03T06:25:49;12.55;;;3.53;;
52180;SDS011;38158;53.338;6.514;2022-08-03T06:28:15;10.23;;;2.92;;
52180;SDS011;38158;53.338;6.514;2022-08-03T06:33:07;11.32;;;2.67;;
52180;SDS011;38158;53.338;6.514;2022-08-03T06:35:33;13.88;;;2.85;;
52180;SDS011;38158;53.338;6.514;2022-08-03T06:37:59;11.40;;;2.90;;
52180;SDS011;38158;53.338;6.514;2022-08-03T06:40:24;15.07;;;4.00;;
52180;SDS011;38158;53.338;6.514;2022-08-03T06:42:57;13.35;;;3.42;;
52180;SDS011;38158;53.338;6.514;2022-08-03T06:45:24;15.38;;;3.30;;
52180;SDS011;38158;53.338;6.514;2022-08-03T06:48:03;11.45;;;2.90;;
52180;SDS011;38158;53.338;6.514;2022-08-03T06:50:30;12.55;;;3.05;;
52180;SDS011;38158;53.338;6.514;2022-08-03T06:52:57;8.55;;;2.65;;
52180;SDS011;38158;53.338;6.514;2022-08-03T06:55:23;17.43;;;3.10;;
52180;SDS011;38158;53.338;6.514;2022-08-03T06:57:48;13.20;;;3.30;;
52180;SDS011;38158;53.338;6.514;2022-08-03T07:00:14;13.32;;;3.58;;
52180;SDS011;38158;53.338;6.514;2022-08-03T07:02:40;13.50;;;2.53;;
52180;SDS011;38158;53.338;6.514;2022-08-03T07:05:06;23.08;;;3.85;;
52180;SDS011;38158;53.338;6.514;2022-08-03T07:07:33;10.77;;;2.90;;
52180;SDS011;38158;53.338;6.514;2022-08-03T07:09:58;12.65;;;3.17;;
52180;SDS011;38158;53.338;6.514;2022-08-03T07:12:27;13.18;;;3.20;;
52180;SDS011;38158;53.338;6.514;2022-08-03T07:14:54;13.50;;;3.22;;
52180;SDS011;38158;53.338;6.514;2022-08-03T07:17:21;16.17;;;3.45;;
52180;SDS011;38158;53.338;6.514;2022-08-03T07:19:47;12.05;;;2.85;;
52180;SDS011;38158;53.338;6.514;2022-08-03T07:22:13;16.17;;;3.03;;
52180;SDS011;38158;53.338;6.514;2022-08-03T07:24:38;11.30;;;3.00;;
52180;SDS011;38158;53.338;6.514;2022-08-03T07:27:06;12.35;;;3.33;;
52180;SDS011;38158;53.338;6.514;2022-08-03T07:29:33;12.55;;;3.00;;
52180;SDS011;38158;53.338;6.514;2022-08-03T07:31:58;11.85;;;3.03;;
52180;SDS011;38158;53.338;6.514;2022-08-03T07:34:24;13.23;;;3.20;;
52180;SDS011;38158;53.338;6.514;2022-08-03T07:36:50;12.80;;;2.70;;
52180;SDS011;38158;53.338;6.514;2022-08-03T07:39:16;11.18;;;2.92;;
52180;SDS011;38158;53.338;6.514;2022-08-03T07:41:41;8.75;;;2.65;;
52180;SDS011;38158;53.338;6.514;2022-08-03T07:44:07;10.45;;;2.70;;
52180;SDS011;38158;53.338;6.514;2022-08-03T07:46:32;7.97;;;2.60;;
52180;SDS011;38158;53.338;6.514;2022-08-03T07:48:58;11.80;;;3.33;;
52180;SDS011;38158;53.338;6.514;2022-08-03T07:51:24;12.65;;;3.30;;
52180;SDS011;38158;53.338;6.514;2022-08-03T07:53:49;13.20;;;3.13;;
52180;SDS011;38158;53.338;6.514;2022-08-03T07:56:15;10.40;;;3.50;;
52180;SDS011;38158;53.338;6.514;2022-08-03T07:58:41;9.88;;;3.05;;
52180;SDS011;38158;53.338;6.514;2022-08-03T08:01:07;12.40;;;2.78;;
52180;SDS011;38158;53.338;6.514;2022-08-03T08:03:33;10.63;;;2.87;;
52180;SDS011;38158;53.338;6.514;2022-08-03T08:05:58;14.13;;;3.30;;
52180;SDS011;38158;53.338;6.514;2022-08-03T08:08:24;12.57;;;3.17;;
52180;SDS011;38158;53.338;6.514;2022-08-03T08:10:50;13.50;;;3.05;;
52180;SDS011;38158;53.338;6.514;2022-08-03T08:13:15;10.02;;;2.90;;
52180;SDS011;38158;53.338;6.514;2022-08-03T08:15:41;9.75;;;3.50;;
52180;SDS011;38158;53.338;6.514;2022-08-03T08:18:07;11.05;;;3.72;;
52180;SDS011;38158;53.338;6.514;2022-08-03T08:20:33;15.15;;;3.30;;
52180;SDS011;38158;53.338;6.514;2022-08-03T08:23:03;9.95;;;2.80;;
52180;SDS011;38158;53.338;6.514;2022-08-03T08:25:30;16.73;;;3.70;;
52180;SDS011;38158;53.338;6.514;2022-08-03T08:27:56;11.70;;;3.43;;
52180;SDS011;38158;53.338;6.514;2022-08-03T08:30:26;11.30;;;3.58;;
52180;SDS011;38158;53.338;6.514;2022-08-03T08:32:52;10.67;;;3.63;;
52180;SDS011;38158;53.338;6.514;2022-08-03T08:35:18;11.97;;;3.70;;
52180;SDS011;38158;53.338;6.514;2022-08-03T08:37:44;15.13;;;3.55;;
52180;SDS011;38158;53.338;6.514;2022-08-03T08:40:10;12.27;;;2.85;;
52180;SDS011;38158;53.338;6.514;2022-08-03T08:42:37;11.52;;;3.28;;
52180;SDS011;38158;53.338;6.514;2022-08-03T08:45:08;13.63;;;3.85;;
52180;SDS011;38158;53.338;6.514;2022-08-03T08:47:39;17.05;;;3.67;;
52180;SDS011;38158;53.338;6.514;2022-08-03T08:50:07;9.90;;;2.95;;
52180;SDS011;38158;53.338;6.514;2022-08-03T08:52:34;14.20;;;3.60;;
52180;SDS011;38158;53.338;6.514;2022-08-03T08:57:29;14.63;;;3.73;;
52180;SDS011;38158;53.338;6.514;2022-08-03T09:02:42;12.20;;;4.10;;
52180;SDS011;38158;53.338;6.514;2022-08-03T09:05:10;11.73;;;3.65;;
52180;SDS011;38158;53.338;6.514;2022-08-03T09:07:43;17.15;;;3.85;;
52180;SDS011;38158;53.338;6.514;2022-08-03T09:10:11;9.77;;;4.13;;
52180;SDS011;38158;53.338;6.514;2022-08-03T09:12:40;8.40;;;3.72;;
52180;SDS011;38158;53.338;6.514;2022-08-03T09:17:56;13.95;;;3.85;;
52180;SDS011;38158;53.338;6.514;2022-08-03T09:20:24;12.77;;;3.60;;
52180;SDS011;38158;53.338;6.514;2022-08-03T09:22:58;11.35;;;3.53;;
52180;SDS011;38158;53.338;6.514;2022-08-03T09:25:26;10.98;;;3.83;;
52180;SDS011;38158;53.338;6.514;2022-08-03T09:28:04;16.95;;;4.32;;
52180;SDS011;38158;53.338;6.514;2022-08-03T09:30:39;11.95;;;4.28;;
52180;SDS011;38158;53.338;6.514;2022-08-03T09:33:07;14.98;;;4.15;;
52180;SDS011;38158;53.338;6.514;2022-08-03T09:35:44;12.63;;;3.92;;
52180;SDS011;38158;53.338;6.514;2022-08-03T09:38:18;14.25;;;3.95;;
52180;SDS011;38158;53.338;6.514;2022-08-03T09:40:51;11.52;;;3.85;;
52180;SDS011;38158;53.338;6.514;2022-08-03T09:43:18;15.50;;;3.53;;
52180;SDS011;38158;53.338;6.514;2022-08-03T09:45:45;11.70;;;3.90;;
52180;SDS011;38158;53.338;6.514;2022-08-03T09:48:27;12.67;;;3.80;;
52180;SDS011;38158;53.338;6.514;2022-08-03T09:50:55;12.13;;;3.50;;
52180;SDS011;38158;53.338;6.514;2022-08-03T09:53:22;10.52;;;4.13;;
52180;SDS011;38158;53.338;6.514;2022-08-03T09:55:58;15.80;;;5.10;;
52180;SDS011;38158;53.338;6.514;2022-08-03T09:58:26;13.43;;;4.20;;
52180;SDS011;38158;53.338;6.514;2022-08-03T10:00:54;9.32;;;3.67;;
52180;SDS011;38158;53.338;6.514;2022-08-03T10:03:22;12.40;;;4.15;;
52180;SDS011;38158;53.338;6.514;2022-08-03T10:05:49;11.75;;;3.60;;
52180;SDS011;38158;53.338;6.514;2022-08-03T10:08:16;10.37;;;4.00;;
52180;SDS011;38158;53.338;6.514;2022-08-03T10:10:43;12.40;;;4.28;;
52180;SDS011;38158;53.338;6.514;2022-08-03T10:13:10;10.68;;;3.92;;
52180;SDS011;38158;53.338;6.514;2022-08-03T10:15:38;12.70;;;4.47;;
52180;SDS011;38158;53.338;6.514;2022-08-03T10:18:05;12.60;;;4.57;;
52180;SDS011;38158;53.338;6.514;2022-08-03T10:20:32;18.25;;;5.30;;
52180;SDS011;38158;53.338;6.514;2022-08-03T10:23:07;15.30;;;5.07;;
52180;SDS011;38158;53.338;6.514;2022-08-03T10:25:34;13.85;;;4.43;;
52180;SDS011;38158;53.338;6.514;2022-08-03T10:28:02;9.20;;;4.03;;
52180;SDS011;38158;53.338;6.514;2022-08-03T10:30:31;15.55;;;5.28;;
52180;SDS011;38158;53.338;6.514;2022-08-03T10:35:25;11.20;;;4.15;;
52180;SDS011;38158;53.338;6.514;2022-08-03T10:37:57;14.35;;;4.47;;
52180;SDS011;38158;53.338;6.514;2022-08-03T10:40:25;10.23;;;4.38;;
52180;SDS011;38158;53.338;6.514;2022-08-03T10:42:53;12.20;;;4.18;;
52180;SDS011;38158;53.338;6.514;2022-08-03T10:45:24;14.88;;;4.53;;
52180;SDS011;38158;53.338;6.514;2022-08-03T10:47:52;13.32;;;4.50;;
52180;SDS011;38158;53.338;6.514;2022-08-03T10:50:20;12.23;;;4.35;;
52180;SDS011;38158;53.338;6.514;2022-08-03T10:52:55;15.80;;;4.47;;
52180;SDS011;38158;53.338;6.514;2022-08-03T11:06:23;12.48;;;4.15;;
52180;SDS011;38158;53.338;6.514;2022-08-03T11:11:34;18.58;;;4.82;;
52180;SDS011;38158;53.338;6.514;2022-08-03T11:14:05;14.05;;;4.45;;
52180;SDS011;38158;53.338;6.514;2022-08-03T11:16:34;12.18;;;4.07;;
52180;SDS011;38158;53.338;6.514;2022-08-03T11:19:03;9.50;;;3.75;;
52180;SDS011;38158;53.338;6.514;2022-08-03T11:27:22;13.75;;;4.32;;
52180;SDS011;38158;53.338;6.514;2022-08-03T11:35:12;21.58;;;5.80;;
52180;SDS011;38158;53.338;6.514;2022-08-03T11:48:48;22.80;;;6.55;;
52180;SDS011;38158;53.338;6.514;2022-08-03T11:53:43;19.88;;;5.15;;
52180;SDS011;38158;53.338;6.514;2022-08-03T11:56:11;20.15;;;4.90;;
52180;SDS011;38158;53.338;6.514;2022-08-03T11:58:44;20.70;;;5.50;;
52180;SDS011;38158;53.338;6.514;2022-08-03T12:01:14;16.88;;;4.43;;
52180;SDS011;38158;53.338;6.514;2022-08-03T12:03:42;16.02;;;5.15;;
52180;SDS011;38158;53.338;6.514;2022-08-03T12:06:09;25.67;;;6.25;;
52180;SDS011;38158;53.338;6.514;2022-08-03T12:08:36;18.60;;;5.18;;
52180;SDS011;38158;53.338;6.514;2022-08-03T12:11:03;21.98;;;5.78;;
52180;SDS011;38158;53.338;6.514;2022-08-03T12:13:47;18.15;;;5.35;;
52180;SDS011;38158;53.338;6.514;2022-08-03T12:16:24;19.25;;;5.38;;
52180;SDS011;38158;53.338;6.514;2022-08-03T12:19:04;17.67;;;4.70;;
52180;SDS011;38158;53.338;6.514;2022-08-03T12:21:30;16.98;;;4.78;;
52180;SDS011;38158;53.338;6.514;2022-08-03T12:24:01;17.87;;;4.60;;
52180;SDS011;38158;53.338;6.514;2022-08-03T12:26:28;17.35;;;5.53;;
52180;SDS011;38158;53.338;6.514;2022-08-03T12:28:54;22.10;;;5.68;;
52180;SDS011;38158;53.338;6.514;2022-08-03T12:31:20;16.87;;;5.10;;
52180;SDS011;38158;53.338;6.514;2022-08-03T12:36:51;24.42;;;5.38;;
52180;SDS011;38158;53.338;6.514;2022-08-03T12:39:23;17.48;;;4.63;;
52180;SDS011;38158;53.338;6.514;2022-08-03T12:41:54;17.50;;;5.18;;
52180;SDS011;38158;53.338;6.514;2022-08-03T12:44:30;19.83;;;4.88;;
52180;SDS011;38158;53.338;6.514;2022-08-03T12:46:57;16.42;;;5.38;;
52180;SDS011;38158;53.338;6.514;2022-08-03T12:49:24;18.67;;;4.55;;
52180;SDS011;38158;53.338;6.514;2022-08-03T12:54:16;20.03;;;5.63;;
52180;SDS011;38158;53.338;6.514;2022-08-03T12:59:38;12.25;;;4.63;;
52180;SDS011;38158;53.338;6.514;2022-08-03T13:02:13;14.90;;;3.90;;
52180;SDS011;38158;53.338;6.514;2022-08-03T13:04:41;16.45;;;3.58;;
52180;SDS011;38158;53.338;6.514;2022-08-03T13:07:07;15.88;;;3.42;;
52180;SDS011;38158;53.338;6.514;2022-08-03T13:09:44;18.38;;;3.90;;
52180;SDS011;38158;53.338;6.514;2022-08-03T13:12:13;20.75;;;4.75;;
52180;SDS011;38158;53.338;6.514;2022-08-03T13:14:48;24.85;;;4.43;;
52180;SDS011;38158;53.338;6.514;2022-08-03T13:17:16;11.30;;;3.53;;
52180;SDS011;38158;53.338;6.514;2022-08-03T13:19:45;15.60;;;3.45;;
52180;SDS011;38158;53.338;6.514;2022-08-03T13:22:12;17.35;;;4.30;;
52180;SDS011;38158;53.338;6.514;2022-08-03T13:24:43;14.60;;;4.35;;
52180;SDS011;38158;53.338;6.514;2022-08-03T13:27:10;16.27;;;3.45;;
52180;SDS011;38158;53.338;6.514;2022-08-03T13:29:36;15.05;;;3.35;;
52180;SDS011;38158;53.338;6.514;2022-08-03T13:32:02;14.03;;;4.57;;
52180;SDS011;38158;53.338;6.514;2022-08-03T13:34:29;17.33;;;3.75;;
52180;SDS011;38158;53.338;6.514;2022-08-03T13:36:55;12.00;;;3.33;;
52180;SDS011;38158;53.338;6.514;2022-08-03T13:39:21;13.93;;;3.37;;
52180;SDS011;38158;53.338;6.514;2022-08-03T13:41:47;20.77;;;4.37;;
52180;SDS011;38158;53.338;6.514;2022-08-03T13:44:13;16.50;;;3.67;;
52180;SDS011;38158;53.338;6.514;2022-08-03T13:46:38;19.67;;;4.28;;
52180;SDS011;38158;53.338;6.514;2022-08-03T13:49:05;12.93;;;3.60;;
52180;SDS011;38158;53.338;6.514;2022-08-03T13:51:31;18.50;;;3.88;;
52180;SDS011;38158;53.338;6.514;2022-08-03T13:53:57;15.73;;;3.67;;
52180;SDS011;38158;53.338;6.514;2022-08-03T13:56:24;17.75;;;4.25;;
52180;SDS011;38158;53.338;6.514;2022-08-03T13:58:53;17.90;;;4.20;;
52180;SDS011;38158;53.338;6.514;2022-08-03T14:01:20;15.75;;;3.85;;
52180;SDS011;38158;53.338;6.514;2022-08-03T14:03:45;14.98;;;3.22;;
52180;SDS011;38158;53.338;6.514;2022-08-03T14:06:14;14.38;;;3.47;;
52180;SDS011;38158;53.338;6.514;2022-08-03T14:08:40;11.20;;;2.77;;
52180;SDS011;38158;53.338;6.514;2022-08-03T14:11:05;13.23;;;3.03;;
52180;SDS011;38158;53.338;6.514;2022-08-03T14:13:31;13.87;;;2.90;;
52180;SDS011;38158;53.338;6.514;2022-08-03T14:15:57;13.40;;;3.88;;
52180;SDS011;38158;53.338;6.514;2022-08-03T14:18:23;16.77;;;3.30;;
52180;SDS011;38158;53.338;6.514;2022-08-03T14:20:48;16.77;;;3.60;;
52180;SDS011;38158;53.338;6.514;2022-08-03T14:23:14;21.67;;;4.33;;
52180;SDS011;38158;53.338;6.514;2022-08-03T14:25:40;13.63;;;3.40;;
52180;SDS011;38158;53.338;6.514;2022-08-03T14:28:06;21.38;;;3.97;;
52180;SDS011;38158;53.338;6.514;2022-08-03T14:30:32;13.82;;;3.65;;
52180;SDS011;38158;53.338;6.514;2022-08-03T14:32:58;15.30;;;3.85;;
52180;SDS011;38158;53.338;6.514;2022-08-03T14:35:24;14.77;;;3.50;;
52180;SDS011;38158;53.338;6.514;2022-08-03T14:37:50;16.50;;;3.47;;
52180;SDS011;38158;53.338;6.514;2022-08-03T14:40:16;11.90;;;3.20;;
52180;SDS011;38158;53.338;6.514;2022-08-03T14:45:08;15.50;;;3.83;;
52180;SDS011;38158;53.338;6.514;2022-08-03T14:47:34;17.40;;;3.95;;
52180;SDS011;38158;53.338;6.514;2022-08-03T14:50:00;17.38;;;3.42;;
52180;SDS011;38158;53.338;6.514;2022-08-03T14:52:28;13.80;;;4.18;;
52180;SDS011;38158;53.338;6.514;2022-08-03T14:54:54;15.13;;;4.53;;
52180;SDS011;38158;53.338;6.514;2022-08-03T14:57:20;13.10;;;3.97;;
52180;SDS011;38158;53.338;6.514;2022-08-03T14:59:46;13.80;;;4.50;;
52180;SDS011;38158;53.338;6.514;2022-08-03T15:02:11;11.37;;;3.43;;
52180;SDS011;38158;53.338;6.514;2022-08-03T15:04:37;15.03;;;4.23;;
52180;SDS011;38158;53.338;6.514;2022-08-03T15:07:03;15.27;;;4.37;;
52180;SDS011;38158;53.338;6.514;2022-08-03T15:09:29;12.43;;;3.70;;
52180;SDS011;38158;53.338;6.514;2022-08-03T15:11:55;14.55;;;3.83;;
52180;SDS011;38158;53.338;6.514;2022-08-03T15:14:20;14.27;;;4.07;;
52180;SDS011;38158;53.338;6.514;2022-08-03T15:16:46;16.60;;;3.43;;
52180;SDS011;38158;53.338;6.514;2022-08-03T15:19:12;10.10;;;2.53;;
52180;SDS011;38158;53.338;6.514;2022-08-03T15:21:37;14.27;;;3.17;;
52180;SDS011;38158;53.338;6.514;2022-08-03T15:24:03;12.03;;;3.43;;
52180;SDS011;38158;53.338;6.514;2022-08-03T15:26:29;8.13;;;2.70;;
52180;SDS011;38158;53.338;6.514;2022-08-03T15:28:55;9.67;;;3.10;;
52180;SDS011;38158;53.338;6.514;2022-08-03T15:31:21;12.80;;;3.03;;
52180;SDS011;38158;53.338;6.514;2022-08-03T15:33:47;7.57;;;2.83;;
52180;SDS011;38158;53.338;6.514;2022-08-03T15:36:15;11.50;;;2.80;;
52180;SDS011;38158;53.338;6.514;2022-08-03T15:38:41;11.13;;;2.70;;
52180;SDS011;38158;53.338;6.514;2022-08-03T15:41:07;11.43;;;2.65;;
52180;SDS011;38158;53.338;6.514;2022-08-03T15:43:33;13.87;;;2.97;;
52180;SDS011;38158;53.338;6.514;2022-08-03T15:45:59;12.90;;;3.17;;
52180;SDS011;38158;53.338;6.514;2022-08-03T15:48:24;16.43;;;3.83;;
52180;SDS011;38158;53.338;6.514;2022-08-03T15:50:50;15.50;;;3.90;;
52180;SDS011;38158;53.338;6.514;2022-08-03T15:53:16;17.23;;;3.80;;
52180;SDS011;38158;53.338;6.514;2022-08-03T15:55:42;16.83;;;3.87;;
52180;SDS011;38158;53.338;6.514;2022-08-03T15:58:10;10.65;;;2.88;;
52180;SDS011;38158;53.338;6.514;2022-08-03T16:00:36;12.30;;;3.30;;
52180;SDS011;38158;53.338;6.514;2022-08-03T16:03:01;11.27;;;3.07;;
52180;SDS011;38158;53.338;6.514;2022-08-03T16:05:27;14.30;;;3.57;;
52180;SDS011;38158;53.338;6.514;2022-08-03T16:07:53;14.57;;;4.20;;